No2 Toa Maru — JD2163 — position and weather

sailwx.info

Track history (hours):
 
Tides and Currents Weather Stations Pressure Air Temp Water Temp Dewpoint Dewpoint Depression Visibility Wind Speed Wind Dir Waves Ship Positions

No2 Toa Maru

Last reported at 2018-Jul-16 06:30 UTC. Time now 2018-Jul-16 06:50 UTC.
Position N 35°13' E 139°43'.

Length 40 m; draft 2.8 m.

Type: Tug. MMSI: 431101119.

Date/timePositionNaut miles runAvg speedWind from/ knotsBaromVisibWave heightAir tempDewpointWater temp
2018-Jul-16 06:30N 35°13' E 139°43'510.0
2018-Jul-16 06:00N 35°09' E 139°46'2 3.6
2018-Jul-16 05:30N 35°11' E 139°46'3 6.6
2018-Jul-16 04:58N 35°13' E 139°43'0 0.0
2018-Jul-16 04:29N 35°13' E 139°43'0 0.0
2018-Jul-16 03:59N 35°13' E 139°43'0 0.0
2018-Jul-16 03:30N 35°13' E 139°43'0 0.0
2018-Jul-16 03:00N 35°13' E 139°43'0 0.0
2018-Jul-16 02:27N 35°13' E 139°43'0 0.0
2018-Jul-16 01:59N 35°13' E 139°43'0 0.0
2018-Jul-16 01:25N 35°13' E 139°43'0 0.0
2018-Jul-16 00:37N 35°13' E 139°43'0 0.0
2018-Jul-16 00:28N 35°13' E 139°43'0 0.0
2018-Jul-15 23:59N 35°13' E 139°43'0 0.0
2018-Jul-15 23:30N 35°13' E 139°43'3 6.9
2018-Jul-15 23:01N 35°11' E 139°46'0 0.4
2018-Jul-15 22:29N 35°10' E 139°46'4 7.2
2018-Jul-15 21:59N 35°13' E 139°43'0 0.0
2018-Jul-15 21:29N 35°13' E 139°43'3 6.2
2018-Jul-15 21:01N 35°11' E 139°46'1 2.3
2018-Jul-15 20:30N 35°11' E 139°47'4 8.0
2018-Jul-15 20:00N 35°13' E 139°43'0 0.0
2018-Jul-15 19:30N 35°13' E 139°43'0 0.0
2018-Jul-15 18:59N 35°13' E 139°43'0 0.0
2018-Jul-15 18:30N 35°13' E 139°43'0 0.0
2018-Jul-15 18:00N 35°13' E 139°43'0 0.0
2018-Jul-15 17:29N 35°13' E 139°43'0 0.0
2018-Jul-15 16:59N 35°13' E 139°43'0 0.0
2018-Jul-15 16:30N 35°13' E 139°43'3 5.5
2018-Jul-15 16:01N 35°12' E 139°46'1 2.2
2018-Jul-15 15:30N 35°13' E 139°45'2 3.3
2018-Jul-15 14:59N 35°13' E 139°43'0 0.0
2018-Jul-15 14:30N 35°13' E 139°43'0 0.0
2018-Jul-15 13:59N 35°13' E 139°43'0 0.0
2018-Jul-15 13:30N 35°13' E 139°43'0 0.0
2018-Jul-15 12:59N 35°13' E 139°43'0 0.0
2018-Jul-15 12:30N 35°13' E 139°43'0 0.0
2018-Jul-15 12:00N 35°13' E 139°43'0 0.7
2018-Jul-15 11:30N 35°13' E 139°44'2 3.6
2018-Jul-15 11:00N 35°14' E 139°46'2 4.0
2018-Jul-15 10:29N 35°13' E 139°43'0 0.7
2018-Jul-15 10:01N 35°13' E 139°44'2 4.8
2018-Jul-15 09:31N 35°12' E 139°46'3 5.4
2018-Jul-15 09:01N 35°13' E 139°43'0 0.0
2018-Jul-15 08:31N 35°13' E 139°43'0 0.0
2018-Jul-15 08:01N 35°13' E 139°43'0 0.0
2018-Jul-15 07:30N 35°13' E 139°43'4 8.0
2018-Jul-15 07:00N 35°10' E 139°46'1 2.5
2018-Jul-15 06:30N 35°11' E 139°47'4 7.2
2018-Jul-15 06:00N 35°13' E 139°43'0 0.0
2018-Jul-15 05:31N 35°13' E 139°43'0 0.0
2018-Jul-15 05:01N 35°13' E 139°43'0 0.0
2018-Jul-15 04:31N 35°13' E 139°43'0 0.0
2018-Jul-15 04:01N 35°13' E 139°43'0 0.0
2018-Jul-15 03:30N 35°13' E 139°43'0 0.0
2018-Jul-15 03:01N 35°13' E 139°43'0 1.0
2018-Jul-15 02:29N 35°13' E 139°44'1 2.5
2018-Jul-15 02:00N 35°13' E 139°45'2 3.3
2018-Jul-15 01:30N 35°13' E 139°43'0 0.0
2018-Jul-15 00:59N 35°13' E 139°43'0 0.0
2018-Jul-15 00:30N 35°13' E 139°43'0 0.0
2018-Jul-15 00:00N 35°13' E 139°43'0 0.0
2018-Jul-14 23:28N 35°13' E 139°43'0 0.0
2018-Jul-14 23:00N 35°13' E 139°43'1 1.8
2018-Jul-14 22:31N 35°13' E 139°44'1 2.2
2018-Jul-14 22:01N 35°14' E 139°45'2 3.2
2018-Jul-14 21:27N 35°13' E 139°43'0 0.0
2018-Jul-14 20:56N 35°13' E 139°43'2 5.1
2018-Jul-14 20:30N 35°12' E 139°45'2 4.3
2018-Jul-14 20:00N 35°10' E 139°46'4 8.4
2018-Jul-14 19:30N 35°13' E 139°43'0 0.0
2018-Jul-14 18:59N 35°13' E 139°43'2 4.4
2018-Jul-14 18:30N 35°13' E 139°46'1 1.9
2018-Jul-14 18:00N 35°13' E 139°45'1 2.9
2018-Jul-14 17:30N 35°13' E 139°43'0 0.0
2018-Jul-14 17:00N 35°13' E 139°43'0 0.0
2018-Jul-14 16:30N 35°13' E 139°43'0 0.0
2018-Jul-14 16:00N 35°13' E 139°43'0 0.0
2018-Jul-14 15:30N 35°13' E 139°43'0 0.0
2018-Jul-14 15:00N 35°13' E 139°43'0 0.0
2018-Jul-14 14:30N 35°13' E 139°43'3 2.6
2018-Jul-14 13:30N 35°12' E 139°46'2 3.7
2018-Jul-14 13:00N 35°14' E 139°45'2 3.7
2018-Jul-14 12:30N 35°13' E 139°43'0 0.0
2018-Jul-14 12:00N 35°13' E 139°43'0 0.0
2018-Jul-14 11:30N 35°13' E 139°43'0 0.0
2018-Jul-14 11:00N 35°13' E 139°43'3 4.9
2018-Jul-14 10:29N 35°12' E 139°46'2 3.4
2018-Jul-14 10:00N 35°14' E 139°45'2 3.6
2018-Jul-14 09:30N 35°13' E 139°43'0 0.0
2018-Jul-14 09:00N 35°13' E 139°43'1 2.4
2018-Jul-14 08:30N 35°13' E 139°45'4 7.1
2018-Jul-14 08:00N 35°10' E 139°47'4 8.9
2018-Jul-14 07:30N 35°13' E 139°43'3 5.8
2018-Jul-14 07:00N 35°11' E 139°46'2 3.8
2018-Jul-14 06:30N 35°10' E 139°47'4 7.4
2018-Jul-14 06:00N 35°13' E 139°45'1 2.9
2018-Jul-14 05:30N 35°13' E 139°43'0 0.0
2018-Jul-14 04:58N 35°13' E 139°43'0 0.0
2018-Jul-14 04:30N 35°13' E 139°43'2 4.7
2018-Jul-14 04:01N 35°13' E 139°46'1 2.3
2018-Jul-14 03:31N 35°14' E 139°45'2 3.9
2018-Jul-14 03:00N 35°13' E 139°43'0 0.0
2018-Jul-14 02:30N 35°13' E 139°43'0 0.0
2018-Jul-14 02:01N 35°13' E 139°43'0 0.0
2018-Jul-14 01:11N 35°13' E 139°43'0 0.0
2018-Jul-14 01:01N 35°13' E 139°43'0 0.0
2018-Jul-14 00:30N 35°13' E 139°43'0 0.0
2018-Jul-14 00:00N 35°13' E 139°43'0 0.0
2018-Jul-13 23:31N 35°13' E 139°43'1 2.5
2018-Jul-13 23:00N 35°13' E 139°44'2 5.0
2018-Jul-13 22:30N 35°11' E 139°46'4 7.3
2018-Jul-13 22:00N 35°13' E 139°43'3 5.4
2018-Jul-13 21:31N 35°11' E 139°45'1 1.2
2018-Jul-13 21:00N 35°12' E 139°46'2 4.6
2018-Jul-13 20:30N 35°13' E 139°43'5 9.8
2018-Jul-13 20:00N 35°09' E 139°47'1 1.4
2018-Jul-13 19:30N 35°10' E 139°47'5 9.4
2018-Jul-13 19:00N 35°13' E 139°43'0 0.1
2018-Jul-13 18:30N 35°13' E 139°43'2 3.9
2018-Jul-13 18:00N 35°12' E 139°45'3 5.7
2018-Jul-13 17:30N 35°10' E 139°47'3 7.1
2018-Jul-13 17:00N 35°13' E 139°45'2 3.0
2018-Jul-13 16:30N 35°13' E 139°43'0 0.0
2018-Jul-13 16:00N 35°13' E 139°43'0 0.0
2018-Jul-13 15:29N 35°13' E 139°43'0 0.0
2018-Jul-13 15:00N 35°13' E 139°43'0 0.0
2018-Jul-13 14:30N 35°13' E 139°43'0 0.0
2018-Jul-13 13:30N 35°13' E 139°43'0 0.0
2018-Jul-13 13:00N 35°13' E 139°43'0 0.0
2018-Jul-13 12:30N 35°13' E 139°43'0 0.1
2018-Jul-13 12:00N 35°13' E 139°43'2 4.1
2018-Jul-13 11:30N 35°13' E 139°46'2 3.5
2018-Jul-13 11:00N 35°13' E 139°44'0 0.8
2018-Jul-13 10:30N 35°13' E 139°43'0 0.0
2018-Jul-13 10:00N 35°13' E 139°43'0 0.0
2018-Jul-13 09:30N 35°13' E 139°43'0 0.0
2018-Jul-13 09:00N 35°13' E 139°43'2 4.3
2018-Jul-13 08:30N 35°14' E 139°46'2 4.1
2018-Jul-13 08:01N 35°13' E 139°43'0 0.1
2018-Jul-13 07:30N 35°13' E 139°43'0 0.0
2018-Jul-13 07:00N 35°13' E 139°43'0 0.0
2018-Jul-13 06:30N 35°13' E 139°43'5 9.8
2018-Jul-13 06:00N 35°09' E 139°47'1 1.5
2018-Jul-13 05:30N 35°10' E 139°47'5 9.4
2018-Jul-13 05:00N 35°13' E 139°43'0 0.1
2018-Jul-13 04:28N 35°13' E 139°43'511.0
2018-Jul-13 04:00N 35°09' E 139°47'1 2.9
2018-Jul-13 03:30N 35°10' E 139°46'4 7.3
2018-Jul-13 03:00N 35°13' E 139°43'0 0.0
2018-Jul-13 02:28N 35°13' E 139°43'0 0.0
2018-Jul-13 01:52N 35°13' E 139°43'0 0.0
2018-Jul-13 01:24N 35°13' E 139°43'0 0.0
2018-Jul-13 00:52N 35°13' E 139°43'0 0.0
2018-Jul-13 00:30N 35°13' E 139°43'0 0.0
2018-Jul-12 23:56N 35°13' E 139°43'0 0.0
2018-Jul-12 23:22N 35°13' E 139°43'0 0.0
2018-Jul-12 23:00N 35°13' E 139°43'0 0.0
2018-Jul-12 22:30N 35°13' E 139°43'0 0.0
2018-Jul-12 21:59N 35°13' E 139°43'0 0.0
2018-Jul-12 21:25N 35°13' E 139°43'0 0.6
2018-Jul-12 21:00N 35°13' E 139°43'2 3.5
2018-Jul-12 20:30N 35°14' E 139°46'1 2.6
2018-Jul-12 20:00N 35°12' E 139°46'3 6.0
2018-Jul-12 19:30N 35°09' E 139°46'3 6.9
2018-Jul-12 19:00N 35°13' E 139°45'2 3.9
2018-Jul-12 18:30N 35°13' E 139°43'0 0.0
2018-Jul-12 18:00N 35°13' E 139°43'0 0.0
2018-Jul-12 17:30N 35°13' E 139°43'0 0.0
2018-Jul-12 17:00N 35°13' E 139°43'0 0.0
2018-Jul-12 16:29N 35°13' E 139°43'0 0.0
2018-Jul-12 16:00N 35°13' E 139°43'0 0.0
2018-Jul-12 15:30N 35°13' E 139°43'0 0.0
2018-Jul-12 15:00N 35°13' E 139°43'0 0.0
2018-Jul-12 14:30N 35°13' E 139°43'0 0.0
2018-Jul-12 14:00N 35°13' E 139°43'0 0.0
2018-Jul-12 13:30N 35°13' E 139°43'0 0.0
2018-Jul-12 13:00N 35°13' E 139°43'0 0.0
2018-Jul-12 12:27N 35°13' E 139°43'0 0.0
2018-Jul-12 12:00N 35°13' E 139°43'3 6.6
2018-Jul-12 11:31N 35°11' E 139°46'1 2.3
2018-Jul-12 11:00N 35°12' E 139°46'3 5.3
2018-Jul-12 10:29N 35°13' E 139°43'0 0.0
2018-Jul-12 10:00N 35°13' E 139°43'0 0.0
2018-Jul-12 09:30N 35°13' E 139°43'2 4.6
2018-Jul-12 09:00N 35°12' E 139°46'1 2.6
2018-Jul-12 08:30N 35°13' E 139°46'1 2.1
2018-Jul-12 08:00N 35°12' E 139°46'3 5.2
2018-Jul-12 07:30N 35°10' E 139°47'4 9.0
2018-Jul-12 07:01N 35°13' E 139°43'0 0.1
2018-Jul-12 06:31N 35°13' E 139°43'0 0.0
2018-Jul-12 06:01N 35°13' E 139°43'0 0.0
2018-Jul-12 05:30N 35°13' E 139°43'0 0.0
2018-Jul-12 05:01N 35°13' E 139°43'0 0.0
2018-Jul-12 04:30N 35°13' E 139°43'2 4.7
2018-Jul-12 04:00N 35°13' E 139°46'1 1.5
2018-Jul-12 03:30N 35°13' E 139°45'2 3.3
2018-Jul-12 03:00N 35°13' E 139°43'0 0.0
2018-Jul-12 02:30N 35°13' E 139°43'0 0.0
2018-Jul-12 02:00N 35°13' E 139°43'0 0.0
2018-Jul-12 01:30N 35°13' E 139°43'0 0.0
2018-Jul-12 01:00N 35°13' E 139°43'1 2.3
2018-Jul-12 00:31N 35°13' E 139°44'3 6.4
2018-Jul-12 00:00N 35°10' E 139°47'4 8.2
2018-Jul-11 23:30N 35°13' E 139°43'0 0.0
2018-Jul-11 22:59N 35°13' E 139°43'2 3.7
2018-Jul-11 22:31N 35°13' E 139°45'1 1.6
2018-Jul-11 22:00N 35°13' E 139°45'2 3.7
2018-Jul-11 21:30N 35°13' E 139°43'0 0.0
2018-Jul-11 21:00N 35°13' E 139°43'4 7.1
2018-Jul-11 20:30N 35°10' E 139°46'1 2.6
2018-Jul-11 20:00N 35°09' E 139°47'4 8.0
2018-Jul-11 19:31N 35°13' E 139°44'1 2.3
2018-Jul-11 19:00N 35°13' E 139°43'0 0.0
2018-Jul-11 18:30N 35°13' E 139°43'0 0.0
2018-Jul-11 18:00N 35°13' E 139°43'0 0.0
2018-Jul-11 17:30N 35°13' E 139°43'1 1.6
2018-Jul-11 17:00N 35°13' E 139°44'1 2.3
2018-Jul-11 16:30N 35°14' E 139°45'2 3.4
2018-Jul-11 16:00N 35°13' E 139°43'0 0.0
2018-Jul-11 15:30N 35°13' E 139°43'0 0.0
2018-Jul-11 15:00N 35°13' E 139°43'0 0.0
2018-Jul-11 14:27N 35°13' E 139°43'0 0.0
2018-Jul-11 14:00N 35°13' E 139°43'0 0.0
2018-Jul-11 13:29N 35°13' E 139°43'0 0.0
2018-Jul-11 13:00N 35°13' E 139°43'0 0.0
2018-Jul-11 12:30N 35°13' E 139°43'0 0.0
2018-Jul-11 12:00N 35°13' E 139°43'0 0.0
2018-Jul-11 11:30N 35°13' E 139°43'0 0.0
2018-Jul-11 11:00N 35°13' E 139°43'0 0.0
2018-Jul-11 10:28N 35°13' E 139°43'1 2.6
2018-Jul-11 10:00N 35°13' E 139°45'1 2.1
2018-Jul-11 09:30N 35°14' E 139°45'2 3.7
2018-Jul-11 09:00N 35°13' E 139°43'0 0.0
2018-Jul-11 08:30N 35°13' E 139°43'0 0.0
2018-Jul-11 08:00N 35°13' E 139°43'0 0.0
2018-Jul-11 07:30N 35°13' E 139°43'0 0.0
2018-Jul-11 07:00N 35°13' E 139°43'0 0.0
2018-Jul-11 06:30N 35°13' E 139°43'0 0.0
2018-Jul-11 06:00N 35°13' E 139°43'4 9.2
2018-Jul-11 05:30N 35°10' E 139°47'1 2.4
2018-Jul-11 05:00N 35°11' E 139°47'4 7.5
2018-Jul-11 04:31N 35°13' E 139°43'0 0.0
2018-Jul-11 03:59N 35°13' E 139°43'0 0.0
2018-Jul-11 03:30N 35°13' E 139°43'4 9.0
2018-Jul-11 03:00N 35°10' E 139°47'1 1.3
2018-Jul-11 02:30N 35°10' E 139°47'5 8.2
2018-Jul-11 01:56N 35°13' E 139°43'0 0.0
2018-Jul-11 01:30N 35°13' E 139°43'0 1.0
2018-Jul-11 01:00N 35°13' E 139°44'4 7.1
2018-Jul-11 00:30N 35°11' E 139°47'4 7.6
2018-Jul-11 00:01N 35°13' E 139°43'0 0.1
2018-Jul-10 23:30N 35°13' E 139°43'0 0.0
2018-Jul-10 23:01N 35°13' E 139°43'0 0.0
2018-Jul-10 22:31N 35°13' E 139°43'0 0.0
2018-Jul-10 22:00N 35°13' E 139°43'0 0.0
2018-Jul-10 21:31N 35°13' E 139°43'0 0.0
2018-Jul-10 21:01N 35°13' E 139°43'3 6.9
2018-Jul-10 20:30N 35°11' E 139°46'1 1.5
2018-Jul-10 20:00N 35°10' E 139°47'4 8.4
2018-Jul-10 19:30N 35°13' E 139°43'0 0.1
2018-Jul-10 19:00N 35°13' E 139°43'0 0.0
2018-Jul-10 18:30N 35°13' E 139°43'0 0.0
2018-Jul-10 18:00N 35°13' E 139°43'0 0.0
2018-Jul-10 17:30N 35°13' E 139°43'0 0.0
2018-Jul-10 17:00N 35°13' E 139°43'2 4.8
2018-Jul-10 16:30N 35°13' E 139°46'1 2.1
2018-Jul-10 16:00N 35°14' E 139°45'2 3.7
2018-Jul-10 15:30N 35°13' E 139°43'0 0.0
2018-Jul-10 15:00N 35°13' E 139°43'0 0.0
2018-Jul-10 14:30N 35°13' E 139°43'0 0.0
2018-Jul-10 14:00N 35°13' E 139°43'0 0.0
2018-Jul-10 13:29N 35°13' E 139°43'0 0.0
2018-Jul-10 13:00N 35°13' E 139°43'0 0.0
2018-Jul-10 12:30N 35°13' E 139°43'0 0.0
2018-Jul-10 12:00N 35°13' E 139°43'3 5.1
2018-Jul-10 11:31N 35°13' E 139°46'2 3.7
2018-Jul-10 11:01N 35°14' E 139°45'2 3.6
2018-Jul-10 10:29N 35°13' E 139°43'2 4.4
2018-Jul-10 10:00N 35°13' E 139°46'1 1.1
2018-Jul-10 09:30N 35°13' E 139°45'2 3.7
2018-Jul-10 09:00N 35°13' E 139°43'0 0.0
2018-Jul-10 08:30N 35°13' E 139°43'0 0.0
2018-Jul-10 08:00N 35°13' E 139°43'0 0.0
2018-Jul-10 07:30N 35°13' E 139°43'3 5.6
2018-Jul-10 07:00N 35°12' E 139°46'1 2.5
2018-Jul-10 06:30N 35°13' E 139°46'2 3.2
2018-Jul-10 06:00N 35°13' E 139°44'1 1.1
2018-Jul-10 05:30N 35°13' E 139°43'0 0.0
2018-Jul-10 05:00N 35°13' E 139°43'0 0.0
2018-Jul-10 04:30N 35°13' E 139°43'1 2.1
2018-Jul-10 04:00N 35°13' E 139°44'3 6.2
2018-Jul-10 03:31N 35°11' E 139°47'4 8.0
2018-Jul-10 03:00N 35°13' E 139°43'0 0.0
2018-Jul-10 02:31N 35°13' E 139°43'0 0.0
2018-Jul-10 02:01N 35°13' E 139°43'0 0.0
2018-Jul-10 01:31N 35°13' E 139°43'0 0.0
2018-Jul-10 01:01N 35°13' E 139°43'0 0.0
2018-Jul-10 00:31N 35°13' E 139°43'0 0.0
2018-Jul-10 00:01N 35°13' E 139°43'0 0.0
2018-Jul-09 23:30N 35°13' E 139°43'0 0.0
2018-Jul-09 23:00N 35°13' E 139°43'0 0.0
2018-Jul-09 22:31N 35°13' E 139°43'0 0.0
2018-Jul-09 22:01N 35°13' E 139°43'0 0.0
2018-Jul-09 21:31N 35°13' E 139°43'0 0.0
2018-Jul-09 21:01N 35°13' E 139°43'3 5.5
2018-Jul-09 20:30N 35°11' E 139°45'2 3.8
2018-Jul-09 20:00N 35°10' E 139°46'5 9.0
2018-Jul-09 19:30N 35°13' E 139°43'0 0.2
2018-Jul-09 18:58N 35°13' E 139°43'0 0.0
2018-Jul-09 18:30N 35°13' E 139°43'0 0.0
2018-Jul-09 17:59N 35°13' E 139°43'0 0.0
2018-Jul-09 17:30N 35°13' E 139°43'3 5.2
2018-Jul-09 17:00N 35°12' E 139°46'2 3.2
2018-Jul-09 16:30N 35°13' E 139°45'2 3.3
2018-Jul-09 16:00N 35°13' E 139°43'0 0.0
2018-Jul-09 15:30N 35°13' E 139°43'0 0.0
2018-Jul-09 15:00N 35°13' E 139°43'0 0.0
2018-Jul-09 14:30N 35°13' E 139°43'0 0.0
2018-Jul-09 14:00N 35°13' E 139°43'0 0.0
2018-Jul-09 13:30N 35°13' E 139°43'0 0.0
2018-Jul-09 13:00N 35°13' E 139°43'0 0.0
2018-Jul-09 12:30N 35°13' E 139°43'0 0.0
2018-Jul-09 12:00N 35°13' E 139°43'2 4.9
2018-Jul-09 11:30N 35°12' E 139°46'1 2.2
2018-Jul-09 11:00N 35°13' E 139°45'2 3.1
2018-Jul-09 10:29N 35°13' E 139°43'0 0.0
2018-Jul-09 10:00N 35°13' E 139°43'0 0.0
2018-Jul-09 09:30N 35°13' E 139°43'0 0.5
2018-Jul-09 09:00N 35°13' E 139°43'2 3.3
2018-Jul-09 08:30N 35°14' E 139°45'1 2.6
2018-Jul-09 08:00N 35°13' E 139°44'1 1.3
2018-Jul-09 07:30N 35°13' E 139°43'3 5.5
2018-Jul-09 07:00N 35°11' E 139°45'2 3.9
2018-Jul-09 06:30N 35°13' E 139°44'1 1.8
2018-Jul-09 06:00N 35°13' E 139°43'0 0.0
2018-Jul-09 05:29N 35°13' E 139°43'0 0.0
2018-Jul-09 05:00N 35°13' E 139°43'0 0.0
2018-Jul-09 04:30N 35°13' E 139°43'0 0.0
2018-Jul-09 04:00N 35°13' E 139°43'0 0.0
2018-Jul-09 03:30N 35°13' E 139°43'2 4.4
2018-Jul-09 03:01N 35°12' E 139°45'3 5.3
2018-Jul-09 02:30N 35°10' E 139°47'5 9.7
2018-Jul-09 02:00N 35°13' E 139°43'0 0.0
2018-Jul-09 01:30N 35°13' E 139°43'0 0.0
2018-Jul-09 01:00N 35°13' E 139°43'0 0.0
2018-Jul-09 00:29N 35°13' E 139°43'4 8.3
2018-Jul-09 00:00N 35°10' E 139°46'2 3.5
2018-Jul-08 23:30N 35°12' E 139°47'3 6.3
2018-Jul-08 23:00N 35°13' E 139°43'0 0.0
2018-Jul-08 22:30N 35°13' E 139°43'0 0.0
2018-Jul-08 21:59N 35°13' E 139°43'0 0.0
2018-Jul-08 21:30N 35°13' E 139°43'0 0.0
2018-Jul-08 21:00N 35°13' E 139°43'0 0.1
2018-Jul-08 20:30N 35°13' E 139°43'2 3.8
2018-Jul-08 20:00N 35°13' E 139°46'0 0.9
2018-Jul-08 19:30N 35°14' E 139°45'4 8.5
2018-Jul-08 19:00N 35°09' E 139°46'1 2.8
2018-Jul-08 18:30N 35°10' E 139°47'4 8.4
2018-Jul-08 18:00N 35°13' E 139°43'0 0.0
2018-Jul-08 17:30N 35°13' E 139°43'0 0.0
2018-Jul-08 17:00N 35°13' E 139°43'0 0.0
2018-Jul-08 16:30N 35°13' E 139°43'0 0.0
2018-Jul-08 16:00N 35°13' E 139°43'0 0.0
2018-Jul-08 15:30N 35°13' E 139°43'0 0.0
2018-Jul-08 15:00N 35°13' E 139°43'0 0.0
2018-Jul-08 14:30N 35°13' E 139°43'0 0.0
2018-Jul-08 14:00N 35°13' E 139°43'0 0.0
2018-Jul-08 13:30N 35°13' E 139°43'0 0.0
2018-Jul-08 13:00N 35°13' E 139°43'0 0.0
2018-Jul-08 12:30N 35°13' E 139°43'0 0.0
2018-Jul-08 12:00N 35°13' E 139°43'0 0.0
2018-Jul-08 11:30N 35°13' E 139°43'0 0.0
2018-Jul-08 11:00N 35°13' E 139°43'0 0.0
2018-Jul-08 10:30N 35°13' E 139°43'2 4.4
2018-Jul-08 10:00N 35°12' E 139°45'2 3.8
2018-Jul-08 09:31N 35°14' E 139°45'2 3.3
2018-Jul-08 09:01N 35°13' E 139°44'2 3.3
2018-Jul-08 08:30N 35°13' E 139°46'2 3.0
2018-Jul-08 08:00N 35°13' E 139°44'1 1.5
2018-Jul-08 07:30N 35°13' E 139°43'0 0.0
2018-Jul-08 07:00N 35°13' E 139°43'0 0.0
2018-Jul-08 06:30N 35°13' E 139°43'0 0.0
2018-Jul-08 06:00N 35°13' E 139°43'0 0.0
2018-Jul-08 05:30N 35°13' E 139°43'2 4.5
2018-Jul-08 05:00N 35°13' E 139°46'1 2.1
2018-Jul-08 04:28N 35°14' E 139°45'2 3.9
2018-Jul-08 04:00N 35°13' E 139°43'0 0.0
2018-Jul-08 03:30N 35°13' E 139°43'0 0.0
2018-Jul-08 03:00N 35°13' E 139°43'0 0.0
2018-Jul-08 02:30N 35°13' E 139°43'0 0.0
2018-Jul-08 02:00N 35°13' E 139°43'0 0.0
2018-Jul-08 01:30N 35°13' E 139°43'0 0.0
2018-Jul-08 01:00N 35°13' E 139°43'0 0.0
2018-Jul-08 00:30N 35°13' E 139°43'0 0.0
2018-Jul-08 00:00N 35°13' E 139°43'0 0.0
2018-Jul-07 23:30N 35°13' E 139°43'0 0.0
2018-Jul-07 23:00N 35°13' E 139°43'2 4.4
2018-Jul-07 22:30N 35°13' E 139°46'1 2.6
2018-Jul-07 22:00N 35°13' E 139°44'1 1.8
2018-Jul-07 21:30N 35°13' E 139°43'0 0.0
2018-Jul-07 21:00N 35°13' E 139°43'0 0.1
2018-Jul-07 20:30N 35°13' E 139°43'4 7.1
2018-Jul-07 20:00N 35°10' E 139°46'4 7.1
2018-Jul-07 19:30N 35°13' E 139°43'0 0.0
2018-Jul-07 19:00N 35°13' E 139°43'0 0.0
2018-Jul-07 18:29N 35°13' E 139°43'0 0.0
2018-Jul-07 18:00N 35°13' E 139°43'0 0.0
2018-Jul-07 17:29N 35°13' E 139°43'0 0.0
2018-Jul-07 16:55N 35°13' E 139°43'0 0.0
2018-Jul-07 16:30N 35°13' E 139°43'0 0.0
2018-Jul-07 15:59N 35°13' E 139°43'3 5.6
2018-Jul-07 15:30N 35°12' E 139°46'1 2.3
2018-Jul-07 15:00N 35°13' E 139°45'2 3.1
2018-Jul-07 14:29N 35°13' E 139°43'0 0.0
2018-Jul-07 14:00N 35°13' E 139°43'0 0.0
2018-Jul-07 13:30N 35°13' E 139°43'0 0.0
2018-Jul-07 13:00N 35°13' E 139°43'3 5.1
2018-Jul-07 12:30N 35°12' E 139°46'2 3.2
2018-Jul-07 12:00N 35°14' E 139°45'2 3.4
2018-Jul-07 11:30N 35°13' E 139°43'0 0.0
2018-Jul-07 11:00N 35°13' E 139°43'0 0.0
2018-Jul-07 10:30N 35°13' E 139°43'1 1.9
2018-Jul-07 10:01N 35°13' E 139°44'1 2.1
2018-Jul-07 09:30N 35°14' E 139°45'0 0.7
2018-Jul-07 09:00N 35°13' E 139°45'4 7.5
2018-Jul-07 08:30N 35°10' E 139°47'3 7.0
2018-Jul-07 08:01N 35°13' E 139°45'2 3.0
2018-Jul-07 07:30N 35°13' E 139°43'0 0.0
2018-Jul-07 06:59N 35°13' E 139°43'2 4.4
2018-Jul-07 06:29N 35°13' E 139°46'1 1.5
2018-Jul-07 06:00N 35°13' E 139°45'2 3.7
2018-Jul-07 05:30N 35°13' E 139°43'0 0.0
2018-Jul-07 04:59N 35°13' E 139°43'0 0.0
2018-Jul-07 04:30N 35°13' E 139°43'0 0.0
2018-Jul-07 04:00N 35°13' E 139°43'0 0.0
2018-Jul-07 03:30N 35°13' E 139°43'0 0.0
2018-Jul-07 03:00N 35°13' E 139°43'0 0.0
2018-Jul-07 02:30N 35°13' E 139°43'0 0.0
2018-Jul-07 02:00N 35°13' E 139°43'0 0.0
2018-Jul-07 01:30N 35°13' E 139°43'0 0.0
2018-Jul-07 01:00N 35°13' E 139°43'0 0.0
2018-Jul-07 00:30N 35°13' E 139°43'0 0.0
2018-Jul-07 00:00N 35°13' E 139°43'0 0.0
2018-Jul-06 23:30N 35°13' E 139°43'0 0.0
2018-Jul-06 23:00N 35°13' E 139°43'0 0.1
2018-Jul-06 22:30N 35°13' E 139°43'2 3.8
2018-Jul-06 22:00N 35°13' E 139°46'1 2.8
2018-Jul-06 21:30N 35°13' E 139°44'1 1.2
2018-Jul-06 20:59N 35°13' E 139°43'0 0.0
2018-Jul-06 20:30N 35°13' E 139°43'2 4.5
2018-Jul-06 20:00N 35°13' E 139°46'1 1.1
2018-Jul-06 19:30N 35°13' E 139°45'2 3.6
2018-Jul-06 19:00N 35°13' E 139°43'0 0.0
2018-Jul-06 18:30N 35°13' E 139°43'2 3.5
2018-Jul-06 18:00N 35°13' E 139°45'1 1.1
2018-Jul-06 17:30N 35°13' E 139°45'1 2.4
2018-Jul-06 16:59N 35°13' E 139°43'0 0.0
2018-Jul-06 16:30N 35°13' E 139°43'0 0.0
2018-Jul-06 16:00N 35°13' E 139°43'0 0.0
2018-Jul-06 15:28N 35°13' E 139°43'0 0.0
2018-Jul-06 15:00N 35°13' E 139°43'0 0.0
2018-Jul-06 14:30N 35°13' E 139°43'0 0.0
2018-Jul-06 13:59N 35°13' E 139°43'0 0.0
2018-Jul-06 13:29N 35°13' E 139°43'0 0.0
2018-Jul-06 13:00N 35°13' E 139°43'0 0.0
2018-Jul-06 12:30N 35°13' E 139°43'2 4.1
2018-Jul-06 11:59N 35°13' E 139°46'1 1.2
2018-Jul-06 11:30N 35°14' E 139°45'2 3.6
2018-Jul-06 11:00N 35°13' E 139°43'0 0.0
2018-Jul-06 10:29N 35°13' E 139°43'0 0.0
2018-Jul-06 10:00N 35°13' E 139°43'0 0.0
2018-Jul-06 09:30N 35°13' E 139°43'0 0.0
2018-Jul-06 09:00N 35°13' E 139°43'0 0.0
2018-Jul-06 08:29N 35°13' E 139°43'2 5.0
2018-Jul-06 08:00N 35°13' E 139°46'1 1.1
2018-Jul-06 07:30N 35°13' E 139°45'2 3.9
2018-Jul-06 07:01N 35°11' E 139°46'3 6.6
2018-Jul-06 06:30N 35°13' E 139°43'  
Track history (hours):
 
Tides and Currents Weather Stations Pressure Air Temp Water Temp Dewpoint Dewpoint Depression Visibility Wind Speed Wind Dir Waves Ship Positions

No2 Toa Maru

Last reported at 2018-Jul-16 06:30 UTC. Time now 2018-Jul-16 06:50 UTC.
Position N 35°13' E 139°43'.

Length 40 m; draft 2.8 m.

Type: Tug. MMSI: 431101119.

Date/timePositionNaut miles runAvg speedWind from/ knotsBaromVisibWave heightAir tempDewpointWater temp
2018-Jul-16 06:30N 35°13' E 139°43'510.0
2018-Jul-16 06:00N 35°09' E 139°46'2 3.6
2018-Jul-16 05:30N 35°11' E 139°46'3 6.6
2018-Jul-16 04:58N 35°13' E 139°43'0 0.0
2018-Jul-16 04:29N 35°13' E 139°43'0 0.0
2018-Jul-16 03:59N 35°13' E 139°43'0 0.0
2018-Jul-16 03:30N 35°13' E 139°43'0 0.0
2018-Jul-16 03:00N 35°13' E 139°43'0 0.0
2018-Jul-16 02:27N 35°13' E 139°43'0 0.0
2018-Jul-16 01:59N 35°13' E 139°43'0 0.0
2018-Jul-16 01:25N 35°13' E 139°43'0 0.0
2018-Jul-16 00:37N 35°13' E 139°43'0 0.0
2018-Jul-16 00:28N 35°13' E 139°43'0 0.0
2018-Jul-15 23:59N 35°13' E 139°43'0 0.0
2018-Jul-15 23:30N 35°13' E 139°43'3 6.9
2018-Jul-15 23:01N 35°11' E 139°46'0 0.4
2018-Jul-15 22:29N 35°10' E 139°46'4 7.2
2018-Jul-15 21:59N 35°13' E 139°43'0 0.0
2018-Jul-15 21:29N 35°13' E 139°43'3 6.2
2018-Jul-15 21:01N 35°11' E 139°46'1 2.3
2018-Jul-15 20:30N 35°11' E 139°47'4 8.0
2018-Jul-15 20:00N 35°13' E 139°43'0 0.0
2018-Jul-15 19:30N 35°13' E 139°43'0 0.0
2018-Jul-15 18:59N 35°13' E 139°43'0 0.0
2018-Jul-15 18:30N 35°13' E 139°43'0 0.0
2018-Jul-15 18:00N 35°13' E 139°43'0 0.0
2018-Jul-15 17:29N 35°13' E 139°43'0 0.0
2018-Jul-15 16:59N 35°13' E 139°43'0 0.0
2018-Jul-15 16:30N 35°13' E 139°43'3 5.5
2018-Jul-15 16:01N 35°12' E 139°46'1 2.2
2018-Jul-15 15:30N 35°13' E 139°45'2 3.3
2018-Jul-15 14:59N 35°13' E 139°43'0 0.0
2018-Jul-15 14:30N 35°13' E 139°43'0 0.0
2018-Jul-15 13:59N 35°13' E 139°43'0 0.0
2018-Jul-15 13:30N 35°13' E 139°43'0 0.0
2018-Jul-15 12:59N 35°13' E 139°43'0 0.0
2018-Jul-15 12:30N 35°13' E 139°43'0 0.0
2018-Jul-15 12:00N 35°13' E 139°43'0 0.7
2018-Jul-15 11:30N 35°13' E 139°44'2 3.6
2018-Jul-15 11:00N 35°14' E 139°46'2 4.0
2018-Jul-15 10:29N 35°13' E 139°43'0 0.7
2018-Jul-15 10:01N 35°13' E 139°44'2 4.8
2018-Jul-15 09:31N 35°12' E 139°46'3 5.4
2018-Jul-15 09:01N 35°13' E 139°43'0 0.0
2018-Jul-15 08:31N 35°13' E 139°43'0 0.0
2018-Jul-15 08:01N 35°13' E 139°43'0 0.0
2018-Jul-15 07:30N 35°13' E 139°43'4 8.0
2018-Jul-15 07:00N 35°10' E 139°46'1 2.5
2018-Jul-15 06:30N 35°11' E 139°47'4 7.2
2018-Jul-15 06:00N 35°13' E 139°43'0 0.0
2018-Jul-15 05:31N 35°13' E 139°43'0 0.0
2018-Jul-15 05:01N 35°13' E 139°43'0 0.0
2018-Jul-15 04:31N 35°13' E 139°43'0 0.0
2018-Jul-15 04:01N 35°13' E 139°43'0 0.0
2018-Jul-15 03:30N 35°13' E 139°43'0 0.0
2018-Jul-15 03:01N 35°13' E 139°43'0 1.0
2018-Jul-15 02:29N 35°13' E 139°44'1 2.5
2018-Jul-15 02:00N 35°13' E 139°45'2 3.3
2018-Jul-15 01:30N 35°13' E 139°43'0 0.0
2018-Jul-15 00:59N 35°13' E 139°43'0 0.0
2018-Jul-15 00:30N 35°13' E 139°43'0 0.0
2018-Jul-15 00:00N 35°13' E 139°43'0 0.0
2018-Jul-14 23:28N 35°13' E 139°43'0 0.0
2018-Jul-14 23:00N 35°13' E 139°43'1 1.8
2018-Jul-14 22:31N 35°13' E 139°44'1 2.2
2018-Jul-14 22:01N 35°14' E 139°45'2 3.2
2018-Jul-14 21:27N 35°13' E 139°43'0 0.0
2018-Jul-14 20:56N 35°13' E 139°43'2 5.1
2018-Jul-14 20:30N 35°12' E 139°45'2 4.3
2018-Jul-14 20:00N 35°10' E 139°46'4 8.4
2018-Jul-14 19:30N 35°13' E 139°43'0 0.0
2018-Jul-14 18:59N 35°13' E 139°43'2 4.4
2018-Jul-14 18:30N 35°13' E 139°46'1 1.9
2018-Jul-14 18:00N 35°13' E 139°45'1 2.9
2018-Jul-14 17:30N 35°13' E 139°43'0 0.0
2018-Jul-14 17:00N 35°13' E 139°43'0 0.0
2018-Jul-14 16:30N 35°13' E 139°43'0 0.0
2018-Jul-14 16:00N 35°13' E 139°43'0 0.0
2018-Jul-14 15:30N 35°13' E 139°43'0 0.0
2018-Jul-14 15:00N 35°13' E 139°43'0 0.0
2018-Jul-14 14:30N 35°13' E 139°43'3 2.6
2018-Jul-14 13:30N 35°12' E 139°46'2 3.7
2018-Jul-14 13:00N 35°14' E 139°45'2 3.7
2018-Jul-14 12:30N 35°13' E 139°43'0 0.0
2018-Jul-14 12:00N 35°13' E 139°43'0 0.0
2018-Jul-14 11:30N 35°13' E 139°43'0 0.0
2018-Jul-14 11:00N 35°13' E 139°43'3 4.9
2018-Jul-14 10:29N 35°12' E 139°46'2 3.4
2018-Jul-14 10:00N 35°14' E 139°45'2 3.6
2018-Jul-14 09:30N 35°13' E 139°43'0 0.0
2018-Jul-14 09:00N 35°13' E 139°43'1 2.4
2018-Jul-14 08:30N 35°13' E 139°45'4 7.1
2018-Jul-14 08:00N 35°10' E 139°47'4 8.9
2018-Jul-14 07:30N 35°13' E 139°43'3 5.8
2018-Jul-14 07:00N 35°11' E 139°46'2 3.8
2018-Jul-14 06:30N 35°10' E 139°47'4 7.4
2018-Jul-14 06:00N 35°13' E 139°45'1 2.9
2018-Jul-14 05:30N 35°13' E 139°43'0 0.0
2018-Jul-14 04:58N 35°13' E 139°43'0 0.0
2018-Jul-14 04:30N 35°13' E 139°43'2 4.7
2018-Jul-14 04:01N 35°13' E 139°46'1 2.3
2018-Jul-14 03:31N 35°14' E 139°45'2 3.9
2018-Jul-14 03:00N 35°13' E 139°43'0 0.0
2018-Jul-14 02:30N 35°13' E 139°43'0 0.0
2018-Jul-14 02:01N 35°13' E 139°43'0 0.0
2018-Jul-14 01:11N 35°13' E 139°43'0 0.0
2018-Jul-14 01:01N 35°13' E 139°43'0 0.0
2018-Jul-14 00:30N 35°13' E 139°43'0 0.0
2018-Jul-14 00:00N 35°13' E 139°43'0 0.0
2018-Jul-13 23:31N 35°13' E 139°43'1 2.5
2018-Jul-13 23:00N 35°13' E 139°44'2 5.0
2018-Jul-13 22:30N 35°11' E 139°46'4 7.3
2018-Jul-13 22:00N 35°13' E 139°43'3 5.4
2018-Jul-13 21:31N 35°11' E 139°45'1 1.2
2018-Jul-13 21:00N 35°12' E 139°46'2 4.6
2018-Jul-13 20:30N 35°13' E 139°43'5 9.8
2018-Jul-13 20:00N 35°09' E 139°47'1 1.4
2018-Jul-13 19:30N 35°10' E 139°47'5 9.4
2018-Jul-13 19:00N 35°13' E 139°43'0 0.1
2018-Jul-13 18:30N 35°13' E 139°43'2 3.9
2018-Jul-13 18:00N 35°12' E 139°45'3 5.7
2018-Jul-13 17:30N 35°10' E 139°47'3 7.1
2018-Jul-13 17:00N 35°13' E 139°45'2 3.0
2018-Jul-13 16:30N 35°13' E 139°43'0 0.0
2018-Jul-13 16:00N 35°13' E 139°43'0 0.0
2018-Jul-13 15:29N 35°13' E 139°43'0 0.0
2018-Jul-13 15:00N 35°13' E 139°43'0 0.0
2018-Jul-13 14:30N 35°13' E 139°43'0 0.0
2018-Jul-13 13:30N 35°13' E 139°43'0 0.0
2018-Jul-13 13:00N 35°13' E 139°43'0 0.0
2018-Jul-13 12:30N 35°13' E 139°43'0 0.1
2018-Jul-13 12:00N 35°13' E 139°43'2 4.1
2018-Jul-13 11:30N 35°13' E 139°46'2 3.5
2018-Jul-13 11:00N 35°13' E 139°44'0 0.8
2018-Jul-13 10:30N 35°13' E 139°43'0 0.0
2018-Jul-13 10:00N 35°13' E 139°43'0 0.0
2018-Jul-13 09:30N 35°13' E 139°43'0 0.0
2018-Jul-13 09:00N 35°13' E 139°43'2 4.3
2018-Jul-13 08:30N 35°14' E 139°46'2 4.1
2018-Jul-13 08:01N 35°13' E 139°43'0 0.1
2018-Jul-13 07:30N 35°13' E 139°43'0 0.0
2018-Jul-13 07:00N 35°13' E 139°43'0 0.0
2018-Jul-13 06:30N 35°13' E 139°43'5 9.8
2018-Jul-13 06:00N 35°09' E 139°47'1 1.5
2018-Jul-13 05:30N 35°10' E 139°47'5 9.4
2018-Jul-13 05:00N 35°13' E 139°43'0 0.1
2018-Jul-13 04:28N 35°13' E 139°43'511.0
2018-Jul-13 04:00N 35°09' E 139°47'1 2.9
2018-Jul-13 03:30N 35°10' E 139°46'4 7.3
2018-Jul-13 03:00N 35°13' E 139°43'0 0.0
2018-Jul-13 02:28N 35°13' E 139°43'0 0.0
2018-Jul-13 01:52N 35°13' E 139°43'0 0.0
2018-Jul-13 01:24N 35°13' E 139°43'0 0.0
2018-Jul-13 00:52N 35°13' E 139°43'0 0.0
2018-Jul-13 00:30N 35°13' E 139°43'0 0.0
2018-Jul-12 23:56N 35°13' E 139°43'0 0.0
2018-Jul-12 23:22N 35°13' E 139°43'0 0.0
2018-Jul-12 23:00N 35°13' E 139°43'0 0.0
2018-Jul-12 22:30N 35°13' E 139°43'0 0.0
2018-Jul-12 21:59N 35°13' E 139°43'0 0.0
2018-Jul-12 21:25N 35°13' E 139°43'0 0.6
2018-Jul-12 21:00N 35°13' E 139°43'2 3.5
2018-Jul-12 20:30N 35°14' E 139°46'1 2.6
2018-Jul-12 20:00N 35°12' E 139°46'3 6.0
2018-Jul-12 19:30N 35°09' E 139°46'3 6.9
2018-Jul-12 19:00N 35°13' E 139°45'2 3.9
2018-Jul-12 18:30N 35°13' E 139°43'0 0.0
2018-Jul-12 18:00N 35°13' E 139°43'0 0.0
2018-Jul-12 17:30N 35°13' E 139°43'0 0.0
2018-Jul-12 17:00N 35°13' E 139°43'0 0.0
2018-Jul-12 16:29N 35°13' E 139°43'0 0.0
2018-Jul-12 16:00N 35°13' E 139°43'0 0.0
2018-Jul-12 15:30N 35°13' E 139°43'0 0.0
2018-Jul-12 15:00N 35°13' E 139°43'0 0.0
2018-Jul-12 14:30N 35°13' E 139°43'0 0.0
2018-Jul-12 14:00N 35°13' E 139°43'0 0.0
2018-Jul-12 13:30N 35°13' E 139°43'0 0.0
2018-Jul-12 13:00N 35°13' E 139°43'0 0.0
2018-Jul-12 12:27N 35°13' E 139°43'0 0.0
2018-Jul-12 12:00N 35°13' E 139°43'3 6.6
2018-Jul-12 11:31N 35°11' E 139°46'1 2.3
2018-Jul-12 11:00N 35°12' E 139°46'3 5.3
2018-Jul-12 10:29N 35°13' E 139°43'0 0.0
2018-Jul-12 10:00N 35°13' E 139°43'0 0.0
2018-Jul-12 09:30N 35°13' E 139°43'2 4.6
2018-Jul-12 09:00N 35°12' E 139°46'1 2.6
2018-Jul-12 08:30N 35°13' E 139°46'1 2.1
2018-Jul-12 08:00N 35°12' E 139°46'3 5.2
2018-Jul-12 07:30N 35°10' E 139°47'4 9.0
2018-Jul-12 07:01N 35°13' E 139°43'0 0.1
2018-Jul-12 06:31N 35°13' E 139°43'0 0.0
2018-Jul-12 06:01N 35°13' E 139°43'0 0.0
2018-Jul-12 05:30N 35°13' E 139°43'0 0.0
2018-Jul-12 05:01N 35°13' E 139°43'0 0.0
2018-Jul-12 04:30N 35°13' E 139°43'2 4.7
2018-Jul-12 04:00N 35°13' E 139°46'1 1.5
2018-Jul-12 03:30N 35°13' E 139°45'2 3.3
2018-Jul-12 03:00N 35°13' E 139°43'0 0.0
2018-Jul-12 02:30N 35°13' E 139°43'0 0.0
2018-Jul-12 02:00N 35°13' E 139°43'0 0.0
2018-Jul-12 01:30N 35°13' E 139°43'0 0.0
2018-Jul-12 01:00N 35°13' E 139°43'1 2.3
2018-Jul-12 00:31N 35°13' E 139°44'3 6.4
2018-Jul-12 00:00N 35°10' E 139°47'4 8.2
2018-Jul-11 23:30N 35°13' E 139°43'0 0.0
2018-Jul-11 22:59N 35°13' E 139°43'2 3.7
2018-Jul-11 22:31N 35°13' E 139°45'1 1.6
2018-Jul-11 22:00N 35°13' E 139°45'2 3.7
2018-Jul-11 21:30N 35°13' E 139°43'0 0.0
2018-Jul-11 21:00N 35°13' E 139°43'4 7.1
2018-Jul-11 20:30N 35°10' E 139°46'1 2.6
2018-Jul-11 20:00N 35°09' E 139°47'4 8.0
2018-Jul-11 19:31N 35°13' E 139°44'1 2.3
2018-Jul-11 19:00N 35°13' E 139°43'0 0.0
2018-Jul-11 18:30N 35°13' E 139°43'0 0.0
2018-Jul-11 18:00N 35°13' E 139°43'0 0.0
2018-Jul-11 17:30N 35°13' E 139°43'1 1.6
2018-Jul-11 17:00N 35°13' E 139°44'1 2.3
2018-Jul-11 16:30N 35°14' E 139°45'2 3.4
2018-Jul-11 16:00N 35°13' E 139°43'0 0.0
2018-Jul-11 15:30N 35°13' E 139°43'0 0.0
2018-Jul-11 15:00N 35°13' E 139°43'0 0.0
2018-Jul-11 14:27N 35°13' E 139°43'0 0.0
2018-Jul-11 14:00N 35°13' E 139°43'0 0.0
2018-Jul-11 13:29N 35°13' E 139°43'0 0.0
2018-Jul-11 13:00N 35°13' E 139°43'0 0.0
2018-Jul-11 12:30N 35°13' E 139°43'0 0.0
2018-Jul-11 12:00N 35°13' E 139°43'0 0.0
2018-Jul-11 11:30N 35°13' E 139°43'0 0.0
2018-Jul-11 11:00N 35°13' E 139°43'0 0.0
2018-Jul-11 10:28N 35°13' E 139°43'1 2.6
2018-Jul-11 10:00N 35°13' E 139°45'1 2.1
2018-Jul-11 09:30N 35°14' E 139°45'2 3.7
2018-Jul-11 09:00N 35°13' E 139°43'0 0.0
2018-Jul-11 08:30N 35°13' E 139°43'0 0.0
2018-Jul-11 08:00N 35°13' E 139°43'0 0.0
2018-Jul-11 07:30N 35°13' E 139°43'0 0.0
2018-Jul-11 07:00N 35°13' E 139°43'0 0.0
2018-Jul-11 06:30N 35°13' E 139°43'0 0.0
2018-Jul-11 06:00N 35°13' E 139°43'4 9.2
2018-Jul-11 05:30N 35°10' E 139°47'1 2.4
2018-Jul-11 05:00N 35°11' E 139°47'4 7.5
2018-Jul-11 04:31N 35°13' E 139°43'0 0.0
2018-Jul-11 03:59N 35°13' E 139°43'0 0.0
2018-Jul-11 03:30N 35°13' E 139°43'4 9.0
2018-Jul-11 03:00N 35°10' E 139°47'1 1.3
2018-Jul-11 02:30N 35°10' E 139°47'5 8.2
2018-Jul-11 01:56N 35°13' E 139°43'0 0.0
2018-Jul-11 01:30N 35°13' E 139°43'0 1.0
2018-Jul-11 01:00N 35°13' E 139°44'4 7.1
2018-Jul-11 00:30N 35°11' E 139°47'4 7.6
2018-Jul-11 00:01N 35°13' E 139°43'0 0.1
2018-Jul-10 23:30N 35°13' E 139°43'0 0.0
2018-Jul-10 23:01N 35°13' E 139°43'0 0.0
2018-Jul-10 22:31N 35°13' E 139°43'0 0.0
2018-Jul-10 22:00N 35°13' E 139°43'0 0.0
2018-Jul-10 21:31N 35°13' E 139°43'0 0.0
2018-Jul-10 21:01N 35°13' E 139°43'3 6.9
2018-Jul-10 20:30N 35°11' E 139°46'1 1.5
2018-Jul-10 20:00N 35°10' E 139°47'4 8.4
2018-Jul-10 19:30N 35°13' E 139°43'0 0.1
2018-Jul-10 19:00N 35°13' E 139°43'0 0.0
2018-Jul-10 18:30N 35°13' E 139°43'0 0.0
2018-Jul-10 18:00N 35°13' E 139°43'0 0.0
2018-Jul-10 17:30N 35°13' E 139°43'0 0.0
2018-Jul-10 17:00N 35°13' E 139°43'2 4.8
2018-Jul-10 16:30N 35°13' E 139°46'1 2.1
2018-Jul-10 16:00N 35°14' E 139°45'2 3.7
2018-Jul-10 15:30N 35°13' E 139°43'0 0.0
2018-Jul-10 15:00N 35°13' E 139°43'0 0.0
2018-Jul-10 14:30N 35°13' E 139°43'0 0.0
2018-Jul-10 14:00N 35°13' E 139°43'0 0.0
2018-Jul-10 13:29N 35°13' E 139°43'0 0.0
2018-Jul-10 13:00N 35°13' E 139°43'0 0.0
2018-Jul-10 12:30N 35°13' E 139°43'0 0.0
2018-Jul-10 12:00N 35°13' E 139°43'3 5.1
2018-Jul-10 11:31N 35°13' E 139°46'2 3.7
2018-Jul-10 11:01N 35°14' E 139°45'2 3.6
2018-Jul-10 10:29N 35°13' E 139°43'2 4.4
2018-Jul-10 10:00N 35°13' E 139°46'1 1.1
2018-Jul-10 09:30N 35°13' E 139°45'2 3.7
2018-Jul-10 09:00N 35°13' E 139°43'0 0.0
2018-Jul-10 08:30N 35°13' E 139°43'0 0.0
2018-Jul-10 08:00N 35°13' E 139°43'0 0.0
2018-Jul-10 07:30N 35°13' E 139°43'3 5.6
2018-Jul-10 07:00N 35°12' E 139°46'1 2.5
2018-Jul-10 06:30N 35°13' E 139°46'2 3.2
2018-Jul-10 06:00N 35°13' E 139°44'1 1.1
2018-Jul-10 05:30N 35°13' E 139°43'0 0.0
2018-Jul-10 05:00N 35°13' E 139°43'0 0.0
2018-Jul-10 04:30N 35°13' E 139°43'1 2.1
2018-Jul-10 04:00N 35°13' E 139°44'3 6.2
2018-Jul-10 03:31N 35°11' E 139°47'4 8.0
2018-Jul-10 03:00N 35°13' E 139°43'0 0.0
2018-Jul-10 02:31N 35°13' E 139°43'0 0.0
2018-Jul-10 02:01N 35°13' E 139°43'0 0.0
2018-Jul-10 01:31N 35°13' E 139°43'0 0.0
2018-Jul-10 01:01N 35°13' E 139°43'0 0.0
2018-Jul-10 00:31N 35°13' E 139°43'0 0.0
2018-Jul-10 00:01N 35°13' E 139°43'0 0.0
2018-Jul-09 23:30N 35°13' E 139°43'0 0.0
2018-Jul-09 23:00N 35°13' E 139°43'0 0.0
2018-Jul-09 22:31N 35°13' E 139°43'0 0.0
2018-Jul-09 22:01N 35°13' E 139°43'0 0.0
2018-Jul-09 21:31N 35°13' E 139°43'0 0.0
2018-Jul-09 21:01N 35°13' E 139°43'3 5.5
2018-Jul-09 20:30N 35°11' E 139°45'2 3.8
2018-Jul-09 20:00N 35°10' E 139°46'5 9.0
2018-Jul-09 19:30N 35°13' E 139°43'0 0.2
2018-Jul-09 18:58N 35°13' E 139°43'0 0.0
2018-Jul-09 18:30N 35°13' E 139°43'0 0.0
2018-Jul-09 17:59N 35°13' E 139°43'0 0.0
2018-Jul-09 17:30N 35°13' E 139°43'3 5.2
2018-Jul-09 17:00N 35°12' E 139°46'2 3.2
2018-Jul-09 16:30N 35°13' E 139°45'2 3.3
2018-Jul-09 16:00N 35°13' E 139°43'0 0.0
2018-Jul-09 15:30N 35°13' E 139°43'0 0.0
2018-Jul-09 15:00N 35°13' E 139°43'0 0.0
2018-Jul-09 14:30N 35°13' E 139°43'0 0.0
2018-Jul-09 14:00N 35°13' E 139°43'0 0.0
2018-Jul-09 13:30N 35°13' E 139°43'0 0.0
2018-Jul-09 13:00N 35°13' E 139°43'0 0.0
2018-Jul-09 12:30N 35°13' E 139°43'0 0.0
2018-Jul-09 12:00N 35°13' E 139°43'2 4.9
2018-Jul-09 11:30N 35°12' E 139°46'1 2.2
2018-Jul-09 11:00N 35°13' E 139°45'2 3.1
2018-Jul-09 10:29N 35°13' E 139°43'0 0.0
2018-Jul-09 10:00N 35°13' E 139°43'0 0.0
2018-Jul-09 09:30N 35°13' E 139°43'0 0.5
2018-Jul-09 09:00N 35°13' E 139°43'2 3.3
2018-Jul-09 08:30N 35°14' E 139°45'1 2.6
2018-Jul-09 08:00N 35°13' E 139°44'1 1.3
2018-Jul-09 07:30N 35°13' E 139°43'3 5.5
2018-Jul-09 07:00N 35°11' E 139°45'2 3.9
2018-Jul-09 06:30N 35°13' E 139°44'1 1.8
2018-Jul-09 06:00N 35°13' E 139°43'0 0.0
2018-Jul-09 05:29N 35°13' E 139°43'0 0.0
2018-Jul-09 05:00N 35°13' E 139°43'0 0.0
2018-Jul-09 04:30N 35°13' E 139°43'0 0.0
2018-Jul-09 04:00N 35°13' E 139°43'0 0.0
2018-Jul-09 03:30N 35°13' E 139°43'2 4.4
2018-Jul-09 03:01N 35°12' E 139°45'3 5.3
2018-Jul-09 02:30N 35°10' E 139°47'5 9.7
2018-Jul-09 02:00N 35°13' E 139°43'0 0.0
2018-Jul-09 01:30N 35°13' E 139°43'0 0.0
2018-Jul-09 01:00N 35°13' E 139°43'0 0.0
2018-Jul-09 00:29N 35°13' E 139°43'4 8.3
2018-Jul-09 00:00N 35°10' E 139°46'2 3.5
2018-Jul-08 23:30N 35°12' E 139°47'3 6.3
2018-Jul-08 23:00N 35°13' E 139°43'0 0.0
2018-Jul-08 22:30N 35°13' E 139°43'0 0.0
2018-Jul-08 21:59N 35°13' E 139°43'0 0.0
2018-Jul-08 21:30N 35°13' E 139°43'0 0.0
2018-Jul-08 21:00N 35°13' E 139°43'0 0.1
2018-Jul-08 20:30N 35°13' E 139°43'2 3.8
2018-Jul-08 20:00N 35°13' E 139°46'0 0.9
2018-Jul-08 19:30N 35°14' E 139°45'4 8.5
2018-Jul-08 19:00N 35°09' E 139°46'1 2.8
2018-Jul-08 18:30N 35°10' E 139°47'4 8.4
2018-Jul-08 18:00N 35°13' E 139°43'0 0.0
2018-Jul-08 17:30N 35°13' E 139°43'0 0.0
2018-Jul-08 17:00N 35°13' E 139°43'0 0.0
2018-Jul-08 16:30N 35°13' E 139°43'0 0.0
2018-Jul-08 16:00N 35°13' E 139°43'0 0.0
2018-Jul-08 15:30N 35°13' E 139°43'0 0.0
2018-Jul-08 15:00N 35°13' E 139°43'0 0.0
2018-Jul-08 14:30N 35°13' E 139°43'0 0.0
2018-Jul-08 14:00N 35°13' E 139°43'0 0.0
2018-Jul-08 13:30N 35°13' E 139°43'0 0.0
2018-Jul-08 13:00N 35°13' E 139°43'0 0.0
2018-Jul-08 12:30N 35°13' E 139°43'0 0.0
2018-Jul-08 12:00N 35°13' E 139°43'0 0.0
2018-Jul-08 11:30N 35°13' E 139°43'0 0.0
2018-Jul-08 11:00N 35°13' E 139°43'0 0.0
2018-Jul-08 10:30N 35°13' E 139°43'2 4.4
2018-Jul-08 10:00N 35°12' E 139°45'2 3.8
2018-Jul-08 09:31N 35°14' E 139°45'2 3.3
2018-Jul-08 09:01N 35°13' E 139°44'2 3.3
2018-Jul-08 08:30N 35°13' E 139°46'2 3.0
2018-Jul-08 08:00N 35°13' E 139°44'1 1.5
2018-Jul-08 07:30N 35°13' E 139°43'0 0.0
2018-Jul-08 07:00N 35°13' E 139°43'0 0.0
2018-Jul-08 06:30N 35°13' E 139°43'0 0.0
2018-Jul-08 06:00N 35°13' E 139°43'0 0.0
2018-Jul-08 05:30N 35°13' E 139°43'2 4.5
2018-Jul-08 05:00N 35°13' E 139°46'1 2.1
2018-Jul-08 04:28N 35°14' E 139°45'2 3.9
2018-Jul-08 04:00N 35°13' E 139°43'0 0.0
2018-Jul-08 03:30N 35°13' E 139°43'0 0.0
2018-Jul-08 03:00N 35°13' E 139°43'0 0.0
2018-Jul-08 02:30N 35°13' E 139°43'0 0.0
2018-Jul-08 02:00N 35°13' E 139°43'0 0.0
2018-Jul-08 01:30N 35°13' E 139°43'0 0.0
2018-Jul-08 01:00N 35°13' E 139°43'0 0.0
2018-Jul-08 00:30N 35°13' E 139°43'0 0.0
2018-Jul-08 00:00N 35°13' E 139°43'0 0.0
2018-Jul-07 23:30N 35°13' E 139°43'0 0.0
2018-Jul-07 23:00N 35°13' E 139°43'2 4.4
2018-Jul-07 22:30N 35°13' E 139°46'1 2.6
2018-Jul-07 22:00N 35°13' E 139°44'1 1.8
2018-Jul-07 21:30N 35°13' E 139°43'0 0.0
2018-Jul-07 21:00N 35°13' E 139°43'0 0.1
2018-Jul-07 20:30N 35°13' E 139°43'4 7.1
2018-Jul-07 20:00N 35°10' E 139°46'4 7.1
2018-Jul-07 19:30N 35°13' E 139°43'0 0.0
2018-Jul-07 19:00N 35°13' E 139°43'0 0.0
2018-Jul-07 18:29N 35°13' E 139°43'0 0.0
2018-Jul-07 18:00N 35°13' E 139°43'0 0.0
2018-Jul-07 17:29N 35°13' E 139°43'0 0.0
2018-Jul-07 16:55N 35°13' E 139°43'0 0.0
2018-Jul-07 16:30N 35°13' E 139°43'0 0.0
2018-Jul-07 15:59N 35°13' E 139°43'3 5.6
2018-Jul-07 15:30N 35°12' E 139°46'1 2.3
2018-Jul-07 15:00N 35°13' E 139°45'2 3.1
2018-Jul-07 14:29N 35°13' E 139°43'0 0.0
2018-Jul-07 14:00N 35°13' E 139°43'0 0.0
2018-Jul-07 13:30N 35°13' E 139°43'0 0.0
2018-Jul-07 13:00N 35°13' E 139°43'3 5.1
2018-Jul-07 12:30N 35°12' E 139°46'2 3.2
2018-Jul-07 12:00N 35°14' E 139°45'2 3.4
2018-Jul-07 11:30N 35°13' E 139°43'0 0.0
2018-Jul-07 11:00N 35°13' E 139°43'0 0.0
2018-Jul-07 10:30N 35°13' E 139°43'1 1.9
2018-Jul-07 10:01N 35°13' E 139°44'1 2.1
2018-Jul-07 09:30N 35°14' E 139°45'0 0.7
2018-Jul-07 09:00N 35°13' E 139°45'4 7.5
2018-Jul-07 08:30N 35°10' E 139°47'3 7.0
2018-Jul-07 08:01N 35°13' E 139°45'2 3.0
2018-Jul-07 07:30N 35°13' E 139°43'0 0.0
2018-Jul-07 06:59N 35°13' E 139°43'2 4.4
2018-Jul-07 06:29N 35°13' E 139°46'1 1.5
2018-Jul-07 06:00N 35°13' E 139°45'2 3.7
2018-Jul-07 05:30N 35°13' E 139°43'0 0.0
2018-Jul-07 04:59N 35°13' E 139°43'0 0.0
2018-Jul-07 04:30N 35°13' E 139°43'0 0.0
2018-Jul-07 04:00N 35°13' E 139°43'0 0.0
2018-Jul-07 03:30N 35°13' E 139°43'0 0.0
2018-Jul-07 03:00N 35°13' E 139°43'0 0.0
2018-Jul-07 02:30N 35°13' E 139°43'0 0.0
2018-Jul-07 02:00N 35°13' E 139°43'0 0.0
2018-Jul-07 01:30N 35°13' E 139°43'0 0.0
2018-Jul-07 01:00N 35°13' E 139°43'0 0.0
2018-Jul-07 00:30N 35°13' E 139°43'0 0.0
2018-Jul-07 00:00N 35°13' E 139°43'0 0.0
2018-Jul-06 23:30N 35°13' E 139°43'0 0.0
2018-Jul-06 23:00N 35°13' E 139°43'0 0.1
2018-Jul-06 22:30N 35°13' E 139°43'2 3.8
2018-Jul-06 22:00N 35°13' E 139°46'1 2.8
2018-Jul-06 21:30N 35°13' E 139°44'1 1.2
2018-Jul-06 20:59N 35°13' E 139°43'0 0.0
2018-Jul-06 20:30N 35°13' E 139°43'2 4.5
2018-Jul-06 20:00N 35°13' E 139°46'1 1.1
2018-Jul-06 19:30N 35°13' E 139°45'2 3.6
2018-Jul-06 19:00N 35°13' E 139°43'0 0.0
2018-Jul-06 18:30N 35°13' E 139°43'2 3.5
2018-Jul-06 18:00N 35°13' E 139°45'1 1.1
2018-Jul-06 17:30N 35°13' E 139°45'1 2.4
2018-Jul-06 16:59N 35°13' E 139°43'0 0.0
2018-Jul-06 16:30N 35°13' E 139°43'0 0.0
2018-Jul-06 16:00N 35°13' E 139°43'0 0.0
2018-Jul-06 15:28N 35°13' E 139°43'0 0.0
2018-Jul-06 15:00N 35°13' E 139°43'0 0.0
2018-Jul-06 14:30N 35°13' E 139°43'0 0.0
2018-Jul-06 13:59N 35°13' E 139°43'0 0.0
2018-Jul-06 13:29N 35°13' E 139°43'0 0.0
2018-Jul-06 13:00N 35°13' E 139°43'0 0.0
2018-Jul-06 12:30N 35°13' E 139°43'2 4.1
2018-Jul-06 11:59N 35°13' E 139°46'1 1.2
2018-Jul-06 11:30N 35°14' E 139°45'2 3.6
2018-Jul-06 11:00N 35°13' E 139°43'0 0.0
2018-Jul-06 10:29N 35°13' E 139°43'0 0.0
2018-Jul-06 10:00N 35°13' E 139°43'0 0.0
2018-Jul-06 09:30N 35°13' E 139°43'0 0.0
2018-Jul-06 09:00N 35°13' E 139°43'0 0.0
2018-Jul-06 08:29N 35°13' E 139°43'2 5.0
2018-Jul-06 08:00N 35°13' E 139°46'1 1.1
2018-Jul-06 07:30N 35°13' E 139°45'2 3.9
2018-Jul-06 07:01N 35°11' E 139°46'3 6.6
2018-Jul-06 06:30N 35°13' E 139°43'  

Dump ship's entire track history